Time;durP1;ratioP1;P1;durP2;ratioP2;P2;SDS_P1;SDS_P2;PMS_P1;PMS_P2;Temp;Humidity;BMP_temperature;BMP_pressure;BME280_temperature;BME280_humidity;BME280_pressure;Samples;Min_cycle;Max_cycle;Signal;HPM_P1;HPM_P2
2022/03/23 00:01:41;;;;;;;17.57;10.50;;;;;;;;;;4993148;28;20241;-83
2022/03/23 00:04:09;;;;;;;19.80;8.70;;;;;;;;;;4994150;28;20226;-86
2022/03/23 00:06:37;;;;;;;13.00;8.67;;;;;;;;;;5001114;28;20239;-83
2022/03/23 00:09:05;;;;;;;10.90;8.50;;;;;;;;;;4996009;28;20209;-84
2022/03/23 00:11:33;;;;;;;11.23;8.00;;;;;;;;;;4997349;28;20240;-83
2022/03/23 00:14:00;;;;;;;12.53;8.37;;;;;;;;;;4997825;28;20287;-84
2022/03/23 00:16:27;;;;;;;11.57;8.40;;;;;;;;;;4998135;28;20236;-83
2022/03/23 00:18:54;;;;;;;11.10;8.60;;;;;;;;;;4998613;28;20225;-83
2022/03/23 00:21:22;;;;;;;14.70;9.27;;;;;;;;;;4995655;28;20722;-84
2022/03/23 00:23:49;;;;;;;12.93;9.33;;;;;;;;;;4996129;28;20205;-84
2022/03/23 00:26:17;;;;;;;13.37;9.53;;;;;;;;;;4994502;28;20240;-83
2022/03/23 00:28:44;;;;;;;15.20;9.60;;;;;;;;;;4995321;28;20208;-82
2022/03/23 00:31:11;;;;;;;15.37;10.07;;;;;;;;;;4994073;28;20619;-82
2022/03/23 00:33:39;;;;;;;18.93;8.90;;;;;;;;;;4997770;28;20295;-84
2022/03/23 00:36:09;;;;;;;14.90;9.87;;;;;;;;;;4998687;28;20742;-83
2022/03/23 00:38:36;;;;;;;12.23;9.73;;;;;;;;;;4998995;28;20300;-83
2022/03/23 00:41:04;;;;;;;16.23;8.77;;;;;;;;;;4997639;28;20249;-82
2022/03/23 00:43:32;;;;;;;12.97;8.57;;;;;;;;;;4999749;28;20208;-84
2022/03/23 00:46:00;;;;;;;14.93;9.40;;;;;;;;;;4999033;28;20256;-83
2022/03/23 00:48:27;;;;;;;13.37;10.03;;;;;;;;;;4999653;28;20637;-82
2022/03/23 00:50:54;;;;;;;12.80;9.63;;;;;;;;;;4998561;28;20245;-83
2022/03/23 00:53:21;;;;;;;11.60;9.40;;;;;;;;;;4998886;28;20220;-83
2022/03/23 00:55:49;;;;;;;10.60;8.40;;;;;;;;;;4997891;28;20249;-82
2022/03/23 00:58:19;;;;;;;11.60;9.10;;;;;;;;;;5001430;28;20231;-84
2022/03/23 01:01:05;;;;;;;13.30;8.90;;;;;;;;;;5005944;28;20236;-83
2022/03/23 01:03:32;;;;;;;12.77;9.07;;;;;;;;;;5000182;28;20223;-83
2022/03/23 01:06:00;;;;;;;15.10;9.60;;;;;;;;;;4998966;28;20236;-83
2022/03/23 01:08:27;;;;;;;17.03;10.03;;;;;;;;;;4999446;28;20212;-83
2022/03/23 01:10:54;;;;;;;15.00;9.37;;;;;;;;;;5004411;28;20260;-83
2022/03/23 01:13:21;;;;;;;14.30;9.27;;;;;;;;;;5002433;28;20208;-84
2022/03/23 01:15:48;;;;;;;16.10;10.27;;;;;;;;;;4999940;28;20247;-83
2022/03/23 01:18:17;;;;;;;15.57;9.83;;;;;;;;;;4998845;28;20236;-83
2022/03/23 01:20:44;;;;;;;12.87;9.40;;;;;;;;;;4997806;28;20310;-83
2022/03/23 01:23:11;;;;;;;12.40;9.90;;;;;;;;;;4998034;28;20685;-82
2022/03/23 01:25:38;;;;;;;13.90;9.67;;;;;;;;;;4998143;28;20232;-84
2022/03/23 01:28:06;;;;;;;10.00;8.40;;;;;;;;;;4997437;28;20208;-83
2022/03/23 01:30:33;;;;;;;15.03;10.03;;;;;;;;;;4998426;28;20232;-82
2022/03/23 01:33:00;;;;;;;12.10;9.30;;;;;;;;;;4997769;28;20204;-83
2022/03/23 01:35:28;;;;;;;13.47;8.47;;;;;;;;;;4998425;28;20236;-82
2022/03/23 01:37:55;;;;;;;12.50;8.57;;;;;;;;;;4997934;28;20204;-83
2022/03/23 01:40:23;;;;;;;15.27;9.20;;;;;;;;;;4997658;28;20243;-83
2022/03/23 01:42:50;;;;;;;17.27;9.53;;;;;;;;;;4997960;28;20212;-83
2022/03/23 01:45:17;;;;;;;13.83;9.90;;;;;;;;;;4997611;28;20211;-83
2022/03/23 01:47:44;;;;;;;13.67;9.43;;;;;;;;;;4997411;28;20216;-82
2022/03/23 01:50:11;;;;;;;16.23;9.30;;;;;;;;;;4998901;28;20230;-83
2022/03/23 01:52:40;;;;;;;14.33;9.83;;;;;;;;;;4998063;28;20672;-83
2022/03/23 01:55:09;;;;;;;20.17;9.60;;;;;;;;;;4998316;28;20274;-83
2022/03/23 01:57:36;;;;;;;14.57;9.83;;;;;;;;;;4996283;28;20204;-82
2022/03/23 02:00:05;;;;;;;20.80;10.03;;;;;;;;;;4998995;28;20270;-83
2022/03/23 02:02:32;;;;;;;14.13;9.83;;;;;;;;;;5010863;28;20210;-82
2022/03/23 02:04:59;;;;;;;18.97;10.10;;;;;;;;;;5019198;28;20265;-83
2022/03/23 02:07:26;;;;;;;12.57;9.57;;;;;;;;;;5008386;28;20239;-82
2022/03/23 02:09:55;;;;;;;13.57;9.17;;;;;;;;;;4995634;28;20275;-83
2022/03/23 02:12:22;;;;;;;16.43;9.80;;;;;;;;;;4999532;28;20236;-82
2022/03/23 02:14:49;;;;;;;16.20;9.27;;;;;;;;;;5015313;28;20203;-82
2022/03/23 02:17:16;;;;;;;13.30;9.77;;;;;;;;;;5022129;28;20635;-83
2022/03/23 02:19:43;;;;;;;17.27;10.40;;;;;;;;;;5024087;28;20238;-83
2022/03/23 02:22:12;;;;;;;12.93;9.87;;;;;;;;;;5023879;28;20242;-82
2022/03/23 02:24:39;;;;;;;16.73;10.70;;;;;;;;;;5023048;28;20211;-82
2022/03/23 02:27:06;;;;;;;19.97;10.27;;;;;;;;;;5008057;28;20248;-82
2022/03/23 02:29:34;;;;;;;14.63;10.90;;;;;;;;;;5000038;28;20641;-83
2022/03/23 02:32:02;;;;;;;14.57;10.00;;;;;;;;;;4999108;28;20739;-83
2022/03/23 02:34:29;;;;;;;13.53;9.90;;;;;;;;;;5000466;28;20210;-83
2022/03/23 02:36:56;;;;;;;17.00;10.27;;;;;;;;;;5000561;28;20235;-83
2022/03/23 02:39:25;;;;;;;12.67;9.93;;;;;;;;;;5000368;28;20228;-83
2022/03/23 02:41:53;;;;;;;12.80;9.70;;;;;;;;;;5000077;28;20724;-83
2022/03/23 02:44:21;;;;;;;15.90;9.17;;;;;;;;;;5000237;28;20215;-82
2022/03/23 02:46:48;;;;;;;16.73;10.70;;;;;;;;;;5004813;28;20241;-84
2022/03/23 02:49:16;;;;;;;14.37;9.77;;;;;;;;;;4996874;28;20668;-83
2022/03/23 02:51:44;;;;;;;14.10;10.70;;;;;;;;;;5000849;28;20246;-82
2022/03/23 03:02:35;;;;;;;13.20;9.77;;;;;;;;;;5009002;28;20229;-84
2022/03/23 03:05:02;;;;;;;14.07;10.23;;;;;;;;;;5021282;28;20221;-83
2022/03/23 03:08:44;;;;;;;14.13;9.67;;;;;;;;;;5021033;28;20238;-82
2022/03/23 03:10:16;;;;;;;13.37;10.00;;;;;;;;;;5019679;28;20249;-82
2022/03/23 03:12:44;;;;;;;15.23;9.90;;;;;;;;;;5019541;28;20218;-82
2022/03/23 03:15:12;;;;;;;12.87;9.50;;;;;;;;;;5020697;28;20226;-83
2022/03/23 03:17:39;;;;;;;13.47;9.80;;;;;;;;;;5035106;28;20210;-82
2022/03/23 03:20:06;;;;;;;20.53;9.30;;;;;;;;;;5023085;28;20239;-83
2022/03/23 03:22:35;;;;;;;12.87;9.77;;;;;;;;;;5021140;28;20208;-82
2022/03/23 03:25:02;;;;;;;11.80;8.93;;;;;;;;;;5021091;28;20211;-82
2022/03/23 03:27:35;;;;;;;16.00;10.33;;;;;;;;;;5020807;28;20616;-83
2022/03/23 03:30:03;;;;;;;15.87;9.27;;;;;;;;;;5019983;28;20233;-83
2022/03/23 03:32:30;;;;;;;16.70;9.37;;;;;;;;;;5018234;28;20237;-83
2022/03/23 03:34:57;;;;;;;18.20;9.53;;;;;;;;;;5029579;23;20238;-79
2022/03/23 03:37:25;;;;;;;14.07;8.90;;;;;;;;;;5016813;28;20238;-81
2022/03/23 03:39:52;;;;;;;12.43;9.47;;;;;;;;;;5018738;28;20230;-81
2022/03/23 03:42:19;;;;;;;11.43;8.97;;;;;;;;;;5025450;28;20248;-81
2022/03/23 03:44:48;;;;;;;13.10;9.80;;;;;;;;;;5023086;28;20234;-81
2022/03/23 03:47:19;;;;;;;12.10;9.23;;;;;;;;;;5027456;28;20268;-81
2022/03/23 03:49:47;;;;;;;14.57;9.27;;;;;;;;;;5014246;28;20207;-81
2022/03/23 03:52:14;;;;;;;14.73;9.87;;;;;;;;;;5012871;28;20244;-81
2022/03/23 03:54:41;;;;;;;12.73;10.00;;;;;;;;;;5014575;28;20241;-81
2022/03/23 03:57:09;;;;;;;13.90;9.53;;;;;;;;;;5013879;28;20713;-81
2022/03/23 03:59:36;;;;;;;14.50;10.17;;;;;;;;;;5015201;28;20712;-80
2022/03/23 04:02:03;;;;;;;12.83;10.23;;;;;;;;;;5026445;28;20237;-81
2022/03/23 04:04:32;;;;;;;14.87;9.90;;;;;;;;;;5031126;28;20737;-81
2022/03/23 04:06:59;;;;;;;13.23;10.00;;;;;;;;;;5020341;28;20239;-80
2022/03/23 04:09:26;;;;;;;16.77;10.40;;;;;;;;;;5018005;28;20211;-81
2022/03/23 04:11:53;;;;;;;16.00;9.43;;;;;;;;;;5017719;28;20702;-81
2022/03/23 04:14:20;;;;;;;14.47;10.83;;;;;;;;;;5018043;28;20221;-80
2022/03/23 04:16:47;;;;;;;15.00;10.43;;;;;;;;;;5017337;28;20233;-81
2022/03/23 04:19:14;;;;;;;18.53;11.10;;;;;;;;;;5025371;28;20608;-81
2022/03/23 04:21:42;;;;;;;15.80;10.67;;;;;;;;;;5025131;28;20237;-80
2022/03/23 04:24:10;;;;;;;13.60;10.13;;;;;;;;;;5025753;28;20236;-81
2022/03/23 04:26:37;;;;;;;30.07;11.00;;;;;;;;;;5017781;28;20247;-80
2022/03/23 04:29:04;;;;;;;17.70;10.63;;;;;;;;;;5018224;28;20214;-81
2022/03/23 04:31:31;;;;;;;13.43;10.57;;;;;;;;;;5017223;28;20246;-81
2022/03/23 04:33:58;;;;;;;17.37;10.90;;;;;;;;;;5017171;28;20240;-81
2022/03/23 04:36:25;;;;;;;16.87;10.80;;;;;;;;;;5015711;28;20663;-81
2022/03/23 04:38:53;;;;;;;15.83;10.27;;;;;;;;;;5016289;28;20213;-81
2022/03/23 04:41:20;;;;;;;16.37;10.87;;;;;;;;;;5015980;28;20239;-81
2022/03/23 04:43:48;;;;;;;14.53;10.77;;;;;;;;;;5016305;28;20288;-81
2022/03/23 04:46:15;;;;;;;15.80;10.40;;;;;;;;;;5016212;28;20851;-81
2022/03/23 04:48:42;;;;;;;17.73;11.20;;;;;;;;;;5016589;28;20221;-81
2022/03/23 04:51:09;;;;;;;16.83;10.10;;;;;;;;;;5015980;28;20245;-81
2022/03/23 04:53:36;;;;;;;13.67;10.47;;;;;;;;;;5016382;28;20234;-81
2022/03/23 04:56:05;;;;;;;20.27;11.00;;;;;;;;;;5016777;28;20329;-81
2022/03/23 04:58:32;;;;;;;15.40;10.63;;;;;;;;;;5015864;28;20219;-81
2022/03/23 05:00:59;;;;;;;16.77;10.70;;;;;;;;;;5015588;28;20253;-81
2022/03/23 05:03:26;;;;;;;16.10;11.43;;;;;;;;;;5016651;28;20252;-80
2022/03/23 05:05:53;;;;;;;21.03;12.80;;;;;;;;;;5016110;28;20893;-81
2022/03/23 05:08:20;;;;;;;20.27;12.87;;;;;;;;;;5016780;28;20590;-81
2022/03/23 05:10:47;;;;;;;18.67;12.33;;;;;;;;;;5018120;28;20232;-82
2022/03/23 05:13:16;;;;;;;19.77;13.13;;;;;;;;;;5024626;28;20210;-82
2022/03/23 05:15:43;;;;;;;17.17;12.13;;;;;;;;;;5011758;28;20244;-81
2022/03/23 05:18:10;;;;;;;17.50;11.80;;;;;;;;;;5015869;28;20211;-81
2022/03/23 05:20:37;;;;;;;21.77;12.20;;;;;;;;;;5015438;28;20243;-82
2022/03/23 05:23:04;;;;;;;20.27;11.70;;;;;;;;;;5015810;28;20268;-81
2022/03/23 05:25:31;;;;;;;20.53;12.40;;;;;;;;;;5015851;28;20696;-81
2022/03/23 05:27:58;;;;;;;17.10;11.20;;;;;;;;;;5015484;28;20208;-81
2022/03/23 05:30:27;;;;;;;16.17;11.77;;;;;;;;;;5014917;28;20287;-81
2022/03/23 05:32:54;;;;;;;20.20;11.80;;;;;;;;;;5010646;28;20209;-81
2022/03/23 05:35:21;;;;;;;26.50;11.67;;;;;;;;;;5007620;28;20252;-82
2022/03/23 05:37:48;;;;;;;23.80;12.03;;;;;;;;;;5016188;28;20212;-82
2022/03/23 05:40:15;;;;;;;25.43;12.83;;;;;;;;;;5016185;28;20229;-81
2022/03/23 05:42:42;;;;;;;23.37;12.30;;;;;;;;;;5016388;28;20693;-82
2022/03/23 05:45:09;;;;;;;18.23;11.00;;;;;;;;;;5015758;28;20218;-81
2022/03/23 05:47:38;;;;;;;23.10;12.33;;;;;;;;;;5016776;28;20351;-82
2022/03/23 05:50:06;;;;;;;18.90;11.63;;;;;;;;;;5015859;28;20203;-82
2022/03/23 05:52:33;;;;;;;15.77;10.67;;;;;;;;;;5016915;28;20212;-83
2022/03/23 05:55:01;;;;;;;15.47;11.53;;;;;;;;;;5017103;28;20244;-83
2022/03/23 05:57:28;;;;;;;17.53;11.70;;;;;;;;;;5014776;28;20252;-84
2022/03/23 05:59:55;;;;;;;21.83;10.77;;;;;;;;;;5006523;28;20228;-84
2022/03/23 06:02:22;;;;;;;15.50;10.23;;;;;;;;;;5022438;28;20223;-84
2022/03/23 06:04:50;;;;;;;14.27;10.30;;;;;;;;;;5016300;28;20223;-84
2022/03/23 06:07:18;;;;;;;17.47;10.60;;;;;;;;;;5014337;28;20258;-83
2022/03/23 06:09:45;;;;;;;15.03;11.10;;;;;;;;;;5015326;28;20204;-83
2022/03/23 06:12:14;;;;;;;15.93;10.87;;;;;;;;;;5006793;28;20236;-82
2022/03/23 06:14:43;;;;;;;20.67;12.30;;;;;;;;;;5016237;28;20229;-81
2022/03/23 06:17:10;;;;;;;15.77;11.67;;;;;;;;;;5015951;28;20657;-82
2022/03/23 06:19:37;;;;;;;19.50;11.60;;;;;;;;;;5017300;28;20553;-83
2022/03/23 06:22:06;;;;;;;18.27;12.17;;;;;;;;;;5017191;28;20240;-84
2022/03/23 06:24:33;;;;;;;20.10;12.27;;;;;;;;;;5017373;28;20753;-82
2022/03/23 06:27:00;;;;;;;31.97;13.20;;;;;;;;;;5015662;28;20243;-82
2022/03/23 06:29:28;;;;;;;18.07;12.20;;;;;;;;;;5017471;28;20315;-82
2022/03/23 06:31:55;;;;;;;25.47;12.30;;;;;;;;;;5011075;28;20945;-82
2022/03/23 06:34:22;;;;;;;19.00;12.10;;;;;;;;;;5018682;28;20610;-82
2022/03/23 06:36:50;;;;;;;18.63;11.47;;;;;;;;;;5015571;28;20266;-83
2022/03/23 06:39:19;;;;;;;36.20;13.37;;;;;;;;;;5017234;28;20202;-83
2022/03/23 06:41:47;;;;;;;15.77;12.23;;;;;;;;;;5015779;28;20245;-82
2022/03/23 06:44:17;;;;;;;20.97;12.50;;;;;;;;;;5016337;28;20667;-83
2022/03/23 06:46:44;;;;;;;18.20;12.27;;;;;;;;;;5032867;28;20235;-83
2022/03/23 06:49:12;;;;;;;26.87;12.03;;;;;;;;;;5035952;28;20226;-82
2022/03/23 06:51:39;;;;;;;23.67;13.57;;;;;;;;;;5036156;28;20262;-83
2022/03/23 06:54:06;;;;;;;21.97;12.43;;;;;;;;;;5035587;28;20224;-83
2022/03/23 06:56:34;;;;;;;17.33;12.80;;;;;;;;;;5016853;28;20270;-83
2022/03/23 06:59:01;;;;;;;19.33;12.57;;;;;;;;;;5033975;28;20662;-83
2022/03/23 07:01:28;;;;;;;17.93;13.07;;;;;;;;;;5033963;28;20237;-82
2022/03/23 07:03:55;;;;;;;22.30;14.07;;;;;;;;;;5016451;28;20234;-82
2022/03/23 07:06:22;;;;;;;19.67;13.73;;;;;;;;;;5009062;28;20260;-81
2022/03/23 07:11:36;;;;;;;18.37;12.80;;;;;;;;;;4994798;28;20705;-82
2022/03/23 07:14:03;;;;;;;20.83;12.73;;;;;;;;;;4995365;28;20227;-82
2022/03/23 07:16:30;;;;;;;23.87;13.37;;;;;;;;;;4994878;28;20617;-82
2022/03/23 07:18:57;;;;;;;20.20;13.60;;;;;;;;;;4995307;28;20222;-82
2022/03/23 07:21:24;;;;;;;18.80;12.83;;;;;;;;;;4994936;28;20239;-82
2022/03/23 07:23:51;;;;;;;17.23;12.03;;;;;;;;;;4995962;28;20239;-82
2022/03/23 07:26:18;;;;;;;25.23;14.90;;;;;;;;;;4995567;28;20236;-82
2022/03/23 07:28:47;;;;;;;31.17;14.20;;;;;;;;;;5016466;28;20211;-81
2022/03/23 07:31:14;;;;;;;25.93;13.23;;;;;;;;;;5015254;28;20266;-82
2022/03/23 07:33:41;;;;;;;24.97;13.77;;;;;;;;;;5016239;28;20231;-82
2022/03/23 07:36:10;;;;;;;25.60;13.00;;;;;;;;;;5015974;28;20239;-82
2022/03/23 07:38:37;;;;;;;18.80;12.30;;;;;;;;;;5016731;28;20261;-82
2022/03/23 07:41:04;;;;;;;21.27;12.63;;;;;;;;;;5015650;28;20239;-82
2022/03/23 07:43:31;;;;;;;16.13;11.40;;;;;;;;;;5016639;28;20231;-83
2022/03/23 07:46:00;;;;;;;14.97;11.23;;;;;;;;;;5015840;28;20234;-82
2022/03/23 07:48:27;;;;;;;16.87;11.43;;;;;;;;;;5018788;28;20664;-82
2022/03/23 07:50:54;;;;;;;13.43;10.50;;;;;;;;;;5015124;28;20250;-82
2022/03/23 07:53:21;;;;;;;17.53;10.83;;;;;;;;;;5015697;28;20231;-82
2022/03/23 07:55:48;;;;;;;22.30;11.93;;;;;;;;;;5015311;28;20650;-82
2022/03/23 07:58:15;;;;;;;15.20;10.93;;;;;;;;;;5015319;28;20215;-82
2022/03/23 08:00:43;;;;;;;21.40;11.43;;;;;;;;;;5014565;28;20330;-82
2022/03/23 08:03:11;;;;;;;15.00;11.27;;;;;;;;;;5014747;28;20203;-82
2022/03/23 08:05:38;;;;;;;21.57;11.43;;;;;;;;;;5014781;28;20235;-82
2022/03/23 08:08:07;;;;;;;16.57;10.60;;;;;;;;;;5016426;28;20585;-82
2022/03/23 08:10:35;;;;;;;16.53;10.60;;;;;;;;;;5015773;28;20236;-84
2022/03/23 08:13:03;;;;;;;16.03;10.63;;;;;;;;;;5015629;28;20266;-82
2022/03/23 08:15:30;;;;;;;17.03;11.33;;;;;;;;;;5015029;28;20239;-82
2022/03/23 08:17:57;;;;;;;15.43;10.67;;;;;;;;;;5014726;28;20570;-82
2022/03/23 08:20:35;;;;;;;13.80;9.67;;;;;;;;;;5014574;28;20242;-82
2022/03/23 08:23:02;;;;;;;18.40;10.63;;;;;;;;;;5014702;28;20207;-82
2022/03/23 08:25:29;;;;;;;16.07;10.47;;;;;;;;;;5016003;28;20247;-81
2022/03/23 08:27:57;;;;;;;14.70;9.97;;;;;;;;;;5015889;28;20234;-82
2022/03/23 08:30:25;;;;;;;16.97;10.23;;;;;;;;;;5016302;28;20231;-83
2022/03/23 08:32:52;;;;;;;15.53;10.30;;;;;;;;;;5015779;28;20208;-83
2022/03/23 08:35:19;;;;;;;13.40;10.17;;;;;;;;;;5015039;28;20227;-82
2022/03/23 08:37:48;;;;;;;13.43;9.87;;;;;;;;;;5015853;28;20207;-82
2022/03/23 08:40:15;;;;;;;13.77;9.70;;;;;;;;;;5015504;28;20211;-82
2022/03/23 08:42:42;;;;;;;15.27;9.40;;;;;;;;;;5015304;28;20208;-83
2022/03/23 08:45:10;;;;;;;12.27;9.00;;;;;;;;;;5015453;28;20240;-83
2022/03/23 08:47:38;;;;;;;11.97;9.13;;;;;;;;;;5016010;28;20203;-83
2022/03/23 08:50:07;;;;;;;14.10;8.90;;;;;;;;;;5010665;28;20295;-83
2022/03/23 08:52:34;;;;;;;9.77;8.43;;;;;;;;;;5021568;28;20228;-84
2022/03/23 08:55:03;;;;;;;13.10;8.27;;;;;;;;;;5024629;28;20231;-84
2022/03/23 08:57:30;;;;;;;13.30;8.80;;;;;;;;;;5036151;28;20237;-85
2022/03/23 08:59:58;;;;;;;10.93;7.73;;;;;;;;;;5024366;28;20202;-84
2022/03/23 09:02:25;;;;;;;11.60;7.57;;;;;;;;;;5022176;28;20230;-85
2022/03/23 09:04:52;;;;;;;8.53;7.63;;;;;;;;;;5036802;28;20373;-85
2022/03/23 09:07:19;;;;;;;10.43;7.97;;;;;;;;;;5035279;28;20628;-85
2022/03/23 09:09:46;;;;;;;18.97;11.87;;;;;;;;;;5034783;28;20250;-84
2022/03/23 09:12:15;;;;;;;30.57;18.07;;;;;;;;;;4995810;28;20243;-85
2022/03/23 09:14:42;;;;;;;27.07;16.30;;;;;;;;;;5001621;28;20240;-85
2022/03/23 09:17:09;;;;;;;26.97;13.13;;;;;;;;;;4995140;28;20257;-84
2022/03/23 09:19:37;;;;;;;12.97;9.07;;;;;;;;;;4997077;28;20231;-82
2022/03/23 09:22:05;;;;;;;8.73;7.50;;;;;;;;;;4996398;28;20240;-82
2022/03/23 09:24:32;;;;;;;12.47;7.13;;;;;;;;;;4998698;28;20318;-82
2022/03/23 09:26:59;;;;;;;12.00;7.67;;;;;;;;;;5018927;28;20241;-82
2022/03/23 09:29:28;;;;;;;10.23;7.63;;;;;;;;;;5019012;28;20211;-82
2022/03/23 09:31:55;;;;;;;10.23;7.30;;;;;;;;;;5016688;28;20235;-82
2022/03/23 09:34:25;;;;;;;10.83;6.67;;;;;;;;;;5039961;23;20258;-82
2022/03/23 09:39:40;;;;;;;14.70;7.33;;;;;;;;;;5014014;28;20567;-82
2022/03/23 09:42:18;;;;;;;9.03;7.17;;;;;;;;;;5013134;28;20239;-83
2022/03/23 09:44:47;;;;;;;8.23;6.73;;;;;;;;;;5013776;28;20238;-82
2022/03/23 09:47:14;;;;;;;10.43;7.07;;;;;;;;;;5013422;28;20676;-82
2022/03/23 09:49:42;;;;;;;8.20;7.23;;;;;;;;;;5014455;28;20211;-82
2022/03/23 09:52:09;;;;;;;8.87;7.27;;;;;;;;;;5013283;28;20231;-82
2022/03/23 09:54:41;;;;;;;9.43;7.40;;;;;;;;;;5030551;23;20230;-83
2022/03/23 09:57:09;;;;;;;9.73;7.70;;;;;;;;;;5032942;28;20230;-83
2022/03/23 09:59:36;;;;;;;8.70;7.20;;;;;;;;;;5034070;28;20198;-83
2022/03/23 10:02:18;;;;;;;8.67;7.53;;;;;;;;;;5032811;28;20636;-82
2022/03/23 10:05:03;;;;;;;8.97;6.73;;;;;;;;;;5033279;28;20222;-82
2022/03/23 10:07:33;;;;;;;9.37;7.27;;;;;;;;;;4993512;28;20315;-83
2022/03/23 10:10:19;;;;;;;9.17;7.77;;;;;;;;;;5033240;28;20211;-83
2022/03/23 10:13:05;;;;;;;9.07;7.03;;;;;;;;;;5032357;28;20229;-83
2022/03/23 10:16:16;;;;;;;7.97;6.93;;;;;;;;;;5032936;28;20242;-83
2022/03/23 10:18:56;;;;;;;8.33;6.73;;;;;;;;;;5032555;28;20673;-83
2022/03/23 10:21:25;;;;;;;9.48;7.15;;;;;;;;;;5032580;28;20372;-83
2022/03/23 10:24:14;;;;;;;9.63;6.60;;;;;;;;;;5032502;28;20234;-83
2022/03/23 10:26:42;;;;;;;9.80;7.63;;;;;;;;;;5031844;28;20234;-83
2022/03/23 10:29:19;;;;;;;7.55;6.68;;;;;;;;;;5033099;28;20207;-83
2022/03/23 10:31:46;;;;;;;9.20;7.07;;;;;;;;;;5032335;28;20237;-83
2022/03/23 10:34:13;;;;;;;7.25;6.50;;;;;;;;;;5037617;28;20234;-83
2022/03/23 10:36:51;;;;;;;10.55;7.53;;;;;;;;;;5032132;28;20234;-83
2022/03/23 10:39:28;;;;;;;8.05;6.50;;;;;;;;;;5033146;28;20329;-83
2022/03/23 10:41:57;;;;;;;7.18;6.40;;;;;;;;;;5031897;28;20230;-83
2022/03/23 10:44:24;;;;;;;7.63;6.47;;;;;;;;;;5033049;28;20235;-83
2022/03/23 10:46:51;;;;;;;7.65;6.75;;;;;;;;;;5020290;28;20724;-83
2022/03/23 10:49:20;;;;;;;7.70;6.60;;;;;;;;;;5013061;28;20215;-83
2022/03/23 10:51:47;;;;;;;8.70;6.63;;;;;;;;;;5012050;28;20289;-83
2022/03/23 10:54:15;;;;;;;6.93;6.22;;;;;;;;;;5012804;28;20235;-83
2022/03/23 10:56:43;;;;;;;10.20;6.90;;;;;;;;;;5012101;28;20246;-83
2022/03/23 10:59:22;;;;;;;8.77;6.97;;;;;;;;;;5013393;28;20203;-83
2022/03/23 11:01:59;;;;;;;8.50;7.10;;;;;;;;;;5013719;28;20235;-83
2022/03/23 11:04:29;;;;;;;6.88;6.18;;;;;;;;;;5016644;28;20292;-83
2022/03/23 11:06:58;;;;;;;7.18;6.47;;;;;;;;;;5032480;28;20321;-84
2022/03/23 11:17:51;;;;;;;7.63;6.78;;;;;;;;;;5031629;28;20265;-84
2022/03/23 11:20:19;;;;;;;6.63;6.03;;;;;;;;;;5031649;28;20217;-84
2022/03/23 11:22:46;;;;;;;14.40;9.30;;;;;;;;;;5031428;28;20625;-83
2022/03/23 11:25:13;;;;;;;8.85;6.55;;;;;;;;;;5031488;28;20237;-83
2022/03/23 11:27:42;;;;;;;8.63;6.35;;;;;;;;;;5031776;28;20202;-83
2022/03/23 11:30:10;;;;;;;6.70;6.00;;;;;;;;;;5031702;28;20271;-83
2022/03/23 11:32:38;;;;;;;9.27;6.60;;;;;;;;;;5031616;28;20215;-83
2022/03/23 11:35:06;;;;;;;6.40;5.80;;;;;;;;;;5031347;28;20277;-83
2022/03/23 11:37:35;;;;;;;6.03;5.43;;;;;;;;;;5032000;28;20198;-83
2022/03/23 11:40:03;;;;;;;6.03;5.53;;;;;;;;;;5031758;28;20579;-83
2022/03/23 11:42:31;;;;;;;5.68;5.10;;;;;;;;;;5032153;28;20248;-83
2022/03/23 11:45:00;;;;;;;6.07;5.47;;;;;;;;;;5032454;28;20230;-84
2022/03/23 11:47:30;;;;;;;6.30;5.47;;;;;;;;;;5031099;28;20242;-84
2022/03/23 11:50:04;;;;;;;6.47;5.88;;;;;;;;;;5032022;28;20249;-84
2022/03/23 11:52:35;;;;;;;7.88;5.88;;;;;;;;;;5031344;28;20246;-84
2022/03/23 11:58:04;;;;;;;6.10;5.50;;;;;;;;;;5031336;28;20183;-84
2022/03/23 12:00:38;;;;;;;6.65;5.85;;;;;;;;;;5028996;28;20732;-85
2022/03/23 12:03:05;;;;;;;7.68;5.53;;;;;;;;;;5031840;28;20571;-85
2022/03/23 12:05:35;;;;;;;12.15;5.97;;;;;;;;;;5031339;28;20243;-84
2022/03/23 12:08:02;;;;;;;6.38;5.63;;;;;;;;;;5031828;28;20599;-84
2022/03/23 12:10:31;;;;;;;6.95;5.88;;;;;;;;;;5031769;28;20234;-84
2022/03/23 12:12:58;;;;;;;6.13;5.53;;;;;;;;;;5031734;28;20297;-83
2022/03/23 12:15:26;;;;;;;6.40;5.80;;;;;;;;;;5031597;28;20242;-83
2022/03/23 12:18:03;;;;;;;7.03;5.65;;;;;;;;;;5020111;28;20199;-83
2022/03/23 12:20:31;;;;;;;8.10;6.05;;;;;;;;;;5032984;28;20237;-83
2022/03/23 12:23:03;;;;;;;6.32;5.72;;;;;;;;;;5031706;28;20226;-83
2022/03/23 12:25:48;;;;;;;6.00;5.50;;;;;;;;;;5031229;28;20245;-82
2022/03/23 12:28:20;;;;;;;6.13;5.40;;;;;;;;;;5011209;28;20261;-83
2022/03/23 12:31:00;;;;;;;6.47;5.82;;;;;;;;;;5015387;28;20242;-83
2022/03/23 12:33:31;;;;;;;6.43;5.63;;;;;;;;;;5017111;28;20194;-83
2022/03/23 12:36:00;;;;;;;6.05;5.45;;;;;;;;;;5015151;28;20234;-83
2022/03/23 12:38:29;;;;;;;6.72;5.93;;;;;;;;;;5023421;28;20302;-83
2022/03/23 12:40:58;;;;;;;6.57;5.85;;;;;;;;;;5034786;28;20239;-83
2022/03/23 12:43:39;;;;;;;6.18;5.43;;;;;;;;;;5035088;28;20230;-83
2022/03/23 12:46:07;;;;;;;6.00;5.40;;;;;;;;;;5034279;28;20303;-83
2022/03/23 12:59:37;;;;;;;6.63;5.68;;;;;;;;;;5034975;28;20248;-85
2022/03/23 13:02:29;;;;;;;6.97;5.50;;;;;;;;;;5034103;28;20256;-84
2022/03/23 13:04:59;;;;;;;6.00;5.18;;;;;;;;;;5034566;28;20293;-85
2022/03/23 13:07:42;;;;;;;6.75;5.75;;;;;;;;;;5016972;28;20230;-84
2022/03/23 13:10:13;;;;;;;6.70;5.97;;;;;;;;;;5019880;28;20199;-84
2022/03/23 13:12:45;;;;;;;8.05;6.10;;;;;;;;;;5018118;28;20195;-84
2022/03/23 13:15:14;;;;;;;7.43;5.35;;;;;;;;;;5015969;28;20255;-84
2022/03/23 13:17:42;;;;;;;6.10;5.50;;;;;;;;;;5015196;28;20207;-84
2022/03/23 13:20:11;;;;;;;8.32;5.65;;;;;;;;;;5014923;28;20195;-84
2022/03/23 13:22:39;;;;;;;7.38;5.97;;;;;;;;;;5014528;28;20227;-84
2022/03/23 13:25:07;;;;;;;6.65;5.47;;;;;;;;;;5014365;28;20231;-84
2022/03/23 13:27:37;;;;;;;8.27;5.38;;;;;;;;;;5014613;28;20215;-84
2022/03/23 13:30:05;;;;;;;6.65;5.78;;;;;;;;;;5014017;28;20235;-84
2022/03/23 13:32:32;;;;;;;7.32;6.10;;;;;;;;;;5014410;28;20195;-84
2022/03/23 13:35:00;;;;;;;8.70;5.70;;;;;;;;;;5014536;28;20238;-84
2022/03/23 13:37:31;;;;;;;6.20;5.40;;;;;;;;;;5013584;28;20734;-84
2022/03/23 13:39:59;;;;;;;8.25;6.05;;;;;;;;;;5013925;28;20294;-85
2022/03/23 13:45:11;;;;;;;6.32;5.72;;;;;;;;;;5032389;28;20273;-82
2022/03/23 13:47:40;;;;;;;8.57;6.25;;;;;;;;;;5028437;28;20204;-82
2022/03/23 13:50:08;;;;;;;7.47;6.13;;;;;;;;;;5034498;28;20206;-82
2022/03/23 13:52:37;;;;;;;6.90;6.20;;;;;;;;;;5037260;28;20226;-82
2022/03/23 13:55:04;;;;;;;6.57;5.88;;;;;;;;;;5036528;28;20238;-82
2022/03/23 13:57:32;;;;;;;7.20;6.50;;;;;;;;;;5038542;28;20234;-83
2022/03/23 13:59:59;;;;;;;8.18;6.35;;;;;;;;;;5037494;28;20206;-82
2022/03/23 14:02:26;;;;;;;8.50;6.05;;;;;;;;;;5036559;28;20610;-83
2022/03/23 14:04:53;;;;;;;8.45;6.05;;;;;;;;;;5038754;28;20237;-82
2022/03/23 14:07:21;;;;;;;7.47;6.75;;;;;;;;;;5036330;28;20242;-82
2022/03/23 14:09:50;;;;;;;10.80;7.47;;;;;;;;;;5033550;28;20729;-84
2022/03/23 14:12:18;;;;;;;8.10;7.30;;;;;;;;;;5033782;28;20229;-83
2022/03/23 14:14:45;;;;;;;9.20;7.30;;;;;;;;;;5033686;28;20768;-84
2022/03/23 14:17:18;;;;;;;10.10;7.68;;;;;;;;;;5035211;28;20230;-83
2022/03/23 14:19:46;;;;;;;8.38;6.68;;;;;;;;;;5039684;28;20687;-83
2022/03/23 14:22:14;;;;;;;11.35;7.47;;;;;;;;;;5039327;28;20261;-83
2022/03/23 14:24:41;;;;;;;9.50;7.65;;;;;;;;;;5042330;28;20561;-83
2022/03/23 14:27:17;;;;;;;8.20;7.40;;;;;;;;;;5042373;28;20474;-83
2022/03/23 14:30:04;;;;;;;10.63;7.30;;;;;;;;;;5042345;28;20217;-83
2022/03/23 14:32:31;;;;;;;10.13;6.88;;;;;;;;;;5037367;28;20237;-81
2022/03/23 14:34:58;;;;;;;9.07;7.38;;;;;;;;;;5044178;28;20230;-82
2022/03/23 14:37:33;;;;;;;8.18;7.38;;;;;;;;;;5042089;28;20234;-83
2022/03/23 14:40:01;;;;;;;8.30;7.50;;;;;;;;;;5038264;28;20233;-82
2022/03/23 14:42:35;;;;;;;9.30;7.32;;;;;;;;;;5035733;28;20324;-82
2022/03/23 14:45:02;;;;;;;7.90;7.10;;;;;;;;;;5034228;28;20230;-82
2022/03/23 14:47:48;;;;;;;8.38;7.50;;;;;;;;;;5033622;28;20227;-82
2022/03/23 14:50:15;;;;;;;10.75;7.22;;;;;;;;;;5034466;28;20210;-83
2022/03/23 14:52:42;;;;;;;9.98;7.55;;;;;;;;;;5036037;28;20301;-82
2022/03/23 14:55:09;;;;;;;8.55;7.65;;;;;;;;;;5034747;28;20261;-83
2022/03/23 14:57:38;;;;;;;8.45;7.55;;;;;;;;;;5014275;28;20203;-82
2022/03/23 15:00:05;;;;;;;9.98;8.35;;;;;;;;;;5023217;28;20685;-83
2022/03/23 15:02:33;;;;;;;8.40;7.50;;;;;;;;;;5034177;28;20226;-83
2022/03/23 15:05:00;;;;;;;10.63;6.95;;;;;;;;;;5032302;28;20297;-83
2022/03/23 15:13:16;;;;;;;11.93;8.02;;;;;;;;;;5035189;28;20272;-82
2022/03/23 15:15:44;;;;;;;14.32;8.45;;;;;;;;;;5035717;28;20245;-83
2022/03/23 15:18:11;;;;;;;10.23;7.90;;;;;;;;;;5034357;28;20207;-83
2022/03/23 15:20:38;;;;;;;9.55;8.07;;;;;;;;;;5034083;28;20295;-83
2022/03/23 15:23:07;;;;;;;8.82;7.82;;;;;;;;;;5033657;28;20231;-83